Time;durP1;ratioP1;P1;durP2;ratioP2;P2;SDS_P1;SDS_P2;PMS_P1;PMS_P2;Temp;Humidity;BMP_temperature;BMP_pressure;BME280_temperature;BME280_humidity;BME280_pressure;Samples;Min_cycle;Max_cycle;Signal;HPM_P1;HPM_P2
2023/07/05 00:00:38;;;;;;;12.85;8.00;;;;;;;20.91;88.88;94517.03;5092550;28;20218;-74
2023/07/05 00:03:05;;;;;;;12.73;7.97;;;;;;;20.76;88.86;94507.25;5106488;28;20692;-75
2023/07/05 00:05:35;;;;;;;9.05;7.10;;;;;;;20.79;88.89;94514.72;5080352;28;20223;-74
2023/07/05 00:08:02;;;;;;;13.63;8.20;;;;;;;20.67;88.30;94523.38;5094797;28;20187;-75
2023/07/05 00:10:29;;;;;;;10.95;7.43;;;;;;;20.70;88.41;94522.59;5103802;28;20700;-75
2023/07/05 00:12:56;;;;;;;15.32;7.55;;;;;;;20.64;88.12;94524.94;5085455;28;20201;-74
2023/07/05 00:15:22;;;;;;;11.23;8.15;;;;;;;20.63;88.58;94503.34;5099135;28;20202;-74
2023/07/05 00:17:49;;;;;;;10.80;7.30;;;;;;;20.66;89.61;94516.28;5091088;28;20259;-74
2023/07/05 00:20:16;;;;;;;15.20;8.40;;;;;;;20.69;88.90;94521.03;5092156;28;20209;-74
2023/07/05 00:22:44;;;;;;;13.40;8.18;;;;;;;20.45;90.15;94520.66;5092329;28;20216;-75
2023/07/05 00:25:11;;;;;;;16.45;11.10;;;;;;;20.34;91.34;94522.56;5106318;28;20206;-73
2023/07/05 00:27:38;;;;;;;12.30;7.57;;;;;;;20.23;93.22;94508.00;5099892;28;20206;-74
2023/07/05 00:30:06;;;;;;;15.48;8.90;;;;;;;20.24;92.90;94506.84;5099372;28;20198;-75
2023/07/05 00:32:32;;;;;;;13.52;8.52;;;;;;;20.19;93.05;94521.00;5105265;28;20243;-75
2023/07/05 00:34:59;;;;;;;14.48;8.68;;;;;;;20.25;92.28;94519.41;5098213;28;20244;-74
2023/07/05 00:37:26;;;;;;;16.00;8.60;;;;;;;20.21;92.50;94526.91;5104964;28;20198;-74
2023/07/05 00:39:54;;;;;;;14.20;7.93;;;;;;;19.97;95.19;94535.88;5105151;28;20270;-72
2023/07/05 00:42:21;;;;;;;14.13;8.68;;;;;;;19.77;94.97;94522.47;5079660;28;20241;-73
2023/07/05 00:45:35;;;;;;;10.35;7.65;;;;;;;19.58;96.08;94536.53;5102060;28;20241;-74
2023/07/05 00:48:02;;;;;;;11.80;8.00;;;;;;;19.57;96.46;94543.22;5093788;28;20208;-74
2023/07/05 00:50:41;;;;;;;13.77;7.72;;;;;;;19.66;94.34;94548.38;5103339;28;20229;-74
2023/07/05 00:53:09;;;;;;;12.07;7.63;;;;;;;19.87;93.18;94542.91;5078158;28;20230;-74
2023/07/05 00:55:38;;;;;;;13.18;8.05;;;;;;;20.05;92.67;94543.75;5092951;28;20199;-75
2023/07/05 00:58:05;;;;;;;11.38;7.80;;;;;;;20.13;91.79;94539.84;5096277;28;20201;-75
2023/07/05 01:00:32;;;;;;;11.20;7.20;;;;;;;20.10;91.81;94543.34;5085661;28;20282;-75
2023/07/05 01:03:04;;;;;;;12.75;8.05;;;;;;;20.06;91.66;94542.59;5093765;28;20262;-75
2023/07/05 01:05:30;;;;;;;11.57;8.43;;;;;;;20.13;90.83;94534.34;5087108;28;20234;-74
2023/07/05 01:07:57;;;;;;;13.23;8.05;;;;;;;20.17;91.35;94535.13;5071019;28;20213;-74
2023/07/05 01:10:26;;;;;;;13.25;8.20;;;;;;;20.21;91.94;94529.63;5083152;28;20206;-74
2023/07/05 01:13:03;;;;;;;10.93;7.97;;;;;;;20.26;93.17;94526.47;5090904;28;20199;-75
2023/07/05 01:15:35;;;;;;;13.15;9.40;;;;;;;20.18;93.82;94524.91;5089912;28;20206;-75
2023/07/05 01:18:12;;;;;;;12.32;8.63;;;;;;;20.18;94.30;94519.41;5083712;28;20198;-74
2023/07/05 01:20:45;;;;;;;10.85;7.97;;;;;;;20.07;95.22;94529.63;5090158;28;20287;-74
2023/07/05 01:23:40;;;;;;;12.02;8.57;;;;;;;20.00;96.52;94518.59;5089038;28;20697;-74
2023/07/05 01:26:28;;;;;;;13.60;8.00;;;;;;;20.06;98.24;94515.09;5098627;28;20193;-74
2023/07/05 01:29:20;;;;;;;10.77;8.18;;;;;;;19.98;99.84;94513.47;5076467;28;20203;-74
2023/07/05 01:32:00;;;;;;;13.73;7.95;;;;;;;20.03;99.18;94512.31;5070279;28;20206;-74
2023/07/05 01:34:37;;;;;;;16.42;9.82;;;;;;;20.07;98.40;94511.16;5070120;28;20662;-74
2023/07/05 01:37:06;;;;;;;13.38;9.00;;;;;;;20.13;98.43;94497.78;5069966;28;20199;-74
2023/07/05 01:39:33;;;;;;;14.63;10.15;;;;;;;20.24;98.17;94501.31;5069919;28;20245;-74
2023/07/05 01:42:00;;;;;;;13.68;9.60;;;;;;;20.30;98.14;94499.78;5087863;28;20577;-74
2023/07/05 01:44:28;;;;;;;13.95;9.00;;;;;;;20.28;98.26;94496.63;5089611;28;20283;-73
2023/07/05 01:47:06;;;;;;;12.90;8.45;;;;;;;20.30;98.76;94493.47;5083362;28;20224;-74
2023/07/05 01:49:43;;;;;;;14.00;8.85;;;;;;;20.24;98.81;94490.31;5080322;28;20194;-75
2023/07/05 01:52:19;;;;;;;14.80;8.70;;;;;;;20.18;99.04;94491.91;5070237;28;20203;-74
2023/07/05 01:54:54;;;;;;;11.88;8.48;;;;;;;20.16;98.81;94497.00;5069787;28;20255;-74
2023/07/05 01:57:26;;;;;;;15.45;9.15;;;;;;;20.11;98.87;94511.13;5069487;28;20214;-74
2023/07/05 02:00:03;;;;;;;14.60;9.05;;;;;;;20.08;99.55;94496.22;5078983;28;20256;-76
2023/07/05 02:02:37;;;;;;;14.00;10.68;;;;;;;20.01;100.00;94498.97;5090068;28;20221;-74
2023/07/05 02:05:06;;;;;;;15.43;9.05;;;;;;;20.11;100.00;94492.69;5089535;28;20222;-73
2023/07/05 02:07:34;;;;;;;13.52;11.13;;;;;;;20.02;99.63;94495.03;5092403;28;20202;-74
2023/07/05 02:10:01;;;;;;;12.35;8.05;;;;;;;20.06;99.87;94492.28;5091055;28;20210;-74
2023/07/05 02:12:29;;;;;;;14.02;8.90;;;;;;;20.02;100.00;94495.03;5069762;28;20547;-74
2023/07/05 02:14:56;;;;;;;13.57;8.88;;;;;;;19.95;100.00;94494.25;5078974;28;20202;-75
2023/07/05 02:17:23;;;;;;;12.73;9.55;;;;;;;19.96;100.00;94487.53;5089684;28;20615;-75
2023/07/05 02:19:51;;;;;;;16.05;10.82;;;;;;;19.97;100.00;94492.66;5089826;28;20202;-75
2023/07/05 02:22:19;;;;;;;14.70;8.55;;;;;;;19.95;100.00;94483.25;5089689;28;20338;-74
2023/07/05 02:24:46;;;;;;;12.98;8.23;;;;;;;19.88;100.00;94484.78;5089140;28;20982;-73
2023/07/05 02:27:13;;;;;;;12.82;8.65;;;;;;;19.85;100.00;94482.81;5088908;28;20210;-74
2023/07/05 02:29:39;;;;;;;15.88;9.38;;;;;;;19.80;100.00;94480.47;5088517;28;20203;-74
2023/07/05 02:32:07;;;;;;;12.73;8.77;;;;;;;19.87;100.00;94479.69;5088682;28;20206;-74
2023/07/05 02:34:37;;;;;;;18.15;9.45;;;;;;;19.78;100.00;94471.03;5089102;28;20580;-74
2023/07/05 02:37:05;;;;;;;11.98;8.68;;;;;;;19.70;100.00;94475.72;5089346;28;20248;-74
2023/07/05 02:39:32;;;;;;;12.27;8.45;;;;;;;19.78;98.47;94482.81;5088909;28;20527;-74
2023/07/05 02:41:59;;;;;;;13.32;8.75;;;;;;;19.77;97.72;94481.25;5089238;28;20738;-74
2023/07/05 02:44:25;;;;;;;11.80;8.45;;;;;;;19.75;97.50;94474.56;5088963;28;20234;-74
2023/07/05 02:46:52;;;;;;;12.73;8.38;;;;;;;19.68;97.97;94480.81;5089225;28;20202;-74
2023/07/05 02:49:19;;;;;;;13.85;8.90;;;;;;;19.68;100.00;94475.31;5088959;28;20573;-74
2023/07/05 02:51:46;;;;;;;12.48;8.57;;;;;;;19.69;100.00;94482.38;5088668;28;20247;-74
2023/07/05 02:54:14;;;;;;;14.93;9.20;;;;;;;19.44;100.00;94484.25;5088722;28;20213;-74
2023/07/05 02:56:40;;;;;;;14.35;8.80;;;;;;;19.46;100.00;94476.41;5089518;28;20202;-74
2023/07/05 02:59:07;;;;;;;15.77;8.88;;;;;;;19.63;100.00;94478.47;5089376;28;20206;-74
2023/07/05 03:01:34;;;;;;;14.93;9.50;;;;;;;19.60;100.00;94467.44;5088386;28;20585;-73
2023/07/05 03:04:01;;;;;;;16.73;10.07;;;;;;;19.64;100.00;94468.25;5088995;28;20566;-74
2023/07/05 03:06:28;;;;;;;16.65;9.35;;;;;;;19.64;100.00;94466.28;5089060;28;20202;-74
2023/07/05 03:08:54;;;;;;;12.18;8.52;;;;;;;19.76;99.57;94465.13;5102506;28;20197;-74
2023/07/05 03:11:22;;;;;;;11.55;8.35;;;;;;;19.86;98.39;94470.66;5072450;28;20214;-74
2023/07/05 03:13:49;;;;;;;12.63;9.07;;;;;;;20.03;97.04;94469.09;5087168;28;20213;-74
2023/07/05 03:16:16;;;;;;;14.70;8.95;;;;;;;19.96;97.54;94457.28;5100603;28;20198;-74
2023/07/05 03:18:43;;;;;;;12.98;8.48;;;;;;;20.01;96.06;94452.22;5083976;28;20229;-74
2023/07/05 03:21:09;;;;;;;12.93;9.20;;;;;;;20.35;93.67;94444.38;5072694;28;20203;-74
2023/07/05 03:23:36;;;;;;;11.93;8.30;;;;;;;20.60;91.73;94446.31;5072977;28;20608;-74
2023/07/05 03:26:07;;;;;;;13.07;7.40;;;;;;;20.77;90.56;94440.00;5080650;28;20202;-74
2023/07/05 03:28:38;;;;;;;12.77;9.00;;;;;;;20.96;89.65;94442.28;5094819;28;20240;-75
2023/07/05 03:31:07;;;;;;;11.02;8.15;;;;;;;21.13;88.37;94452.47;5094802;28;20210;-74
2023/07/05 03:33:35;;;;;;;11.70;8.32;;;;;;;21.44;87.08;94450.03;5072275;28;20222;-74
2023/07/05 03:36:04;;;;;;;13.30;8.95;;;;;;;22.25;84.03;94454.25;5072503;28;20207;-75
2023/07/05 03:38:33;;;;;;;12.05;7.80;;;;;;;22.40;82.01;94449.41;5072709;28;20655;-74
2023/07/05 03:41:01;;;;;;;12.45;8.05;;;;;;;22.44;81.37;94450.16;5072252;28;20203;-74
2023/07/05 03:43:28;;;;;;;13.45;10.32;;;;;;;22.77;79.58;94434.88;5094042;28;20237;-74
2023/07/05 03:45:59;;;;;;;14.52;10.13;;;;;;;23.16;78.35;94418.66;5085596;28;20210;-73
2023/07/05 03:48:26;;;;;;;12.20;9.40;;;;;;;23.70;76.02;94425.09;5091154;28;20233;-74
2023/07/05 03:50:56;;;;;;;14.07;9.85;;;;;;;24.14;73.74;94433.56;5092290;28;20271;-74
2023/07/05 03:53:22;;;;;;;13.48;9.77;;;;;;;24.97;71.23;94440.91;5092116;28;20622;-75
2023/07/05 03:55:49;;;;;;;10.55;9.10;;;;;;;25.80;68.04;94444.38;5091995;28;20763;-75
2023/07/05 03:58:16;;;;;;;13.07;8.95;;;;;;;26.92;64.68;94444.88;5091790;28;20206;-74
2023/07/05 04:00:43;;;;;;;11.40;8.93;;;;;;;27.59;62.07;94445.09;5078742;28;20249;-74
2023/07/05 04:03:11;;;;;;;12.18;9.30;;;;;;;27.57;62.27;94450.31;5071460;28;20815;-74
2023/07/05 04:05:38;;;;;;;12.45;9.73;;;;;;;26.85;64.32;94456.19;5072041;28;20223;-74
2023/07/05 04:08:05;;;;;;;12.23;9.35;;;;;;;27.76;62.08;94451.34;5091749;28;20275;-76
2023/07/05 04:10:32;;;;;;;13.90;9.57;;;;;;;28.68;59.92;94456.09;5092184;28;20210;-73
2023/07/05 04:12:59;;;;;;;16.05;10.43;;;;;;;28.03;60.09;94459.28;5091929;28;20210;-73
2023/07/05 04:15:25;;;;;;;12.80;9.45;;;;;;;28.78;58.84;94457.72;5092046;28;20209;-73
2023/07/05 04:17:52;;;;;;;13.73;10.05;;;;;;;29.61;56.27;94457.28;5091829;28;20206;-73
2023/07/05 04:20:20;;;;;;;12.88;9.80;;;;;;;30.16;54.38;94457.63;5105046;28;20212;-74
2023/07/05 04:22:47;;;;;;;13.57;9.80;;;;;;;29.02;57.57;94471.31;5069470;28;20280;-74
2023/07/05 04:25:14;;;;;;;14.02;10.80;;;;;;;28.15;60.05;94466.91;5071635;28;20214;-73
2023/07/05 04:27:40;;;;;;;11.85;10.23;;;;;;;27.23;63.03;94480.66;5070843;28;20198;-73
2023/07/05 04:30:08;;;;;;;16.13;10.68;;;;;;;26.94;64.87;94479.81;5070885;28;20199;-73
2023/07/05 04:32:35;;;;;;;12.10;10.15;;;;;;;27.85;62.71;94478.56;5078882;28;20214;-73
2023/07/05 04:35:02;;;;;;;13.18;10.27;;;;;;;28.59;60.04;94478.28;5091460;28;20206;-73
2023/07/05 04:37:31;;;;;;;13.20;10.68;;;;;;;29.90;56.36;94467.38;5091565;28;20210;-73
2023/07/05 04:39:57;;;;;;;14.65;10.52;;;;;;;30.36;54.52;94471.97;5091546;28;20673;-74
2023/07/05 04:42:24;;;;;;;14.32;10.07;;;;;;;31.94;50.58;94469.78;5091087;28;20294;-74
2023/07/05 04:44:51;;;;;;;12.57;9.68;;;;;;;32.71;48.50;94472.97;5091062;28;20598;-74
2023/07/05 04:47:18;;;;;;;13.00;9.32;;;;;;;31.42;49.25;94482.88;5090980;28;20542;-74
2023/07/05 04:49:46;;;;;;;11.93;8.85;;;;;;;30.87;50.87;94488.38;5091204;28;20700;-74
2023/07/05 04:52:13;;;;;;;14.98;8.98;;;;;;;31.94;48.56;94478.19;5091291;28;20718;-74
2023/07/05 04:54:41;;;;;;;12.23;8.88;;;;;;;32.87;46.12;94480.25;5091412;28;20206;-74
2023/07/05 04:57:09;;;;;;;10.63;9.52;;;;;;;32.78;45.73;94483.88;5091140;28;20202;-74
2023/07/05 04:59:35;;;;;;;12.13;9.73;;;;;;;33.61;43.91;94487.75;5091069;28;20202;-74
2023/07/05 05:02:05;;;;;;;10.38;9.25;;;;;;;34.07;43.02;94484.53;5091248;28;20226;-75
2023/07/05 05:04:32;;;;;;;13.18;10.23;;;;;;;35.02;41.12;94484.06;5091082;28;20513;-74
2023/07/05 05:06:58;;;;;;;10.05;9.02;;;;;;;34.98;41.42;94489.16;5102343;28;20197;-76
2023/07/05 05:09:25;;;;;;;12.90;8.82;;;;;;;34.77;41.65;94484.72;5074507;28;20210;-75
2023/07/05 05:11:53;;;;;;;13.43;9.57;;;;;;;34.55;41.38;94485.91;5070697;28;20779;-74
2023/07/05 05:14:20;;;;;;;11.77;8.85;;;;;;;34.68;41.93;94487.63;5070077;28;20210;-74
2023/07/05 05:16:47;;;;;;;11.45;10.13;;;;;;;35.30;39.81;94489.34;5070157;28;20210;-74
2023/07/05 05:19:13;;;;;;;11.63;9.52;;;;;;;34.93;40.33;94495.47;5070737;28;20203;-74
2023/07/05 05:21:40;;;;;;;13.23;9.35;;;;;;;35.61;39.66;94484.63;5069956;28;20235;-73
2023/07/05 05:24:07;;;;;;;10.27;8.88;;;;;;;35.89;39.13;94501.88;5088120;28;20289;-74
2023/07/05 05:26:34;;;;;;;12.05;9.55;;;;;;;36.03;39.13;94500.25;5089783;28;20206;-74
2023/07/05 05:29:02;;;;;;;12.93;9.20;;;;;;;36.80;37.58;94490.19;5089835;28;20210;-74
2023/07/05 05:31:30;;;;;;;11.15;9.80;;;;;;;36.58;37.46;94505.66;5090457;28;20607;-73
2023/07/05 05:33:57;;;;;;;12.48;9.45;;;;;;;36.35;38.05;94495.47;5090338;28;20274;-74
2023/07/05 05:36:25;;;;;;;12.43;10.15;;;;;;;36.51;37.65;94503.28;5090412;28;20206;-74
2023/07/05 05:38:51;;;;;;;12.27;9.60;;;;;;;33.88;42.29;94504.41;5090063;28;20202;-74
2023/07/05 05:41:18;;;;;;;11.75;9.30;;;;;;;33.85;43.05;94508.16;5089677;28;20661;-75
2023/07/05 05:43:45;;;;;;;11.50;9.52;;;;;;;34.80;40.92;94512.69;5089373;28;20242;-75
2023/07/05 05:46:13;;;;;;;11.65;10.20;;;;;;;35.53;39.94;94516.56;5089833;28;20202;-74
2023/07/05 05:48:40;;;;;;;15.93;10.60;;;;;;;36.00;39.31;94514.56;5090361;28;20206;-75
2023/07/05 05:51:06;;;;;;;11.82;9.77;;;;;;;35.64;39.58;94522.31;5090306;28;20210;-75
2023/07/05 05:53:33;;;;;;;11.68;10.48;;;;;;;36.25;38.97;94511.00;5089674;28;20238;-75
2023/07/05 05:56:00;;;;;;;14.32;9.82;;;;;;;36.50;38.09;94513.00;5089232;28;20213;-75
2023/07/05 05:58:27;;;;;;;13.93;9.27;;;;;;;36.44;38.07;94512.22;5097905;28;20626;-75
2023/07/05 06:00:54;;;;;;;13.27;9.60;;;;;;;36.93;36.93;94507.47;5091124;28;20605;-75
2023/07/05 06:03:22;;;;;;;11.85;9.10;;;;;;;37.00;36.80;94507.03;5089911;28;20263;-74
2023/07/05 06:05:50;;;;;;;10.85;8.93;;;;;;;37.26;37.02;94502.09;5090343;28;20202;-75
2023/07/05 06:08:17;;;;;;;11.80;10.00;;;;;;;36.95;37.45;94502.88;5090340;28;20252;-75
2023/07/05 06:10:45;;;;;;;10.73;9.55;;;;;;;36.66;37.50;94503.91;5088834;28;20210;-75
2023/07/05 06:13:12;;;;;;;12.80;9.70;;;;;;;33.74;42.11;94496.69;5089544;28;20230;-74
2023/07/05 06:15:39;;;;;;;12.05;10.35;;;;;;;32.56;45.34;94505.75;5089898;28;20652;-74
2023/07/05 06:18:05;;;;;;;12.32;10.07;;;;;;;33.91;42.50;94490.63;5089218;28;20206;-74
2023/07/05 06:20:34;;;;;;;11.45;9.30;;;;;;;33.74;42.81;94496.69;5092360;28;20605;-75
2023/07/05 06:23:03;;;;;;;15.32;10.02;;;;;;;33.53;43.06;94492.16;5089554;28;20251;-75
2023/07/05 06:25:30;;;;;;;12.85;9.70;;;;;;;32.43;44.59;94492.72;5088999;28;20676;-75
2023/07/05 06:27:56;;;;;;;14.63;11.30;;;;;;;32.80;44.97;94482.13;5097213;28;20742;-74
2023/07/05 06:30:23;;;;;;;12.23;9.73;;;;;;;33.93;43.52;94485.28;5088961;28;20198;-74
2023/07/05 06:32:50;;;;;;;13.80;10.10;;;;;;;34.17;42.59;94471.91;5088362;28;20234;-75
2023/07/05 06:35:17;;;;;;;9.85;8.85;;;;;;;34.83;41.51;94474.34;5087288;28;20206;-75
2023/07/05 06:37:45;;;;;;;14.35;10.40;;;;;;;34.31;41.99;94482.41;5089231;28;20198;-73
2023/07/05 06:40:13;;;;;;;13.35;9.63;;;;;;;33.51;44.41;94489.06;5087423;28;20217;-74
2023/07/05 06:42:40;;;;;;;12.00;9.95;;;;;;;34.44;41.83;94482.88;5087535;28;20275;-74
2023/07/05 06:45:08;;;;;;;12.30;9.57;;;;;;;35.18;40.79;94474.31;5084233;28;20654;-74
2023/07/05 06:47:35;;;;;;;12.95;8.80;;;;;;;35.85;38.84;94475.94;5088403;28;20201;-74
2023/07/05 06:50:02;;;;;;;12.75;9.90;;;;;;;35.58;39.35;94473.56;5087796;28;20255;-76
2023/07/05 06:52:28;;;;;;;14.13;9.88;;;;;;;35.55;39.25;94478.13;5088864;28;20226;-75
2023/07/05 06:54:56;;;;;;;12.60;10.05;;;;;;;35.46;39.56;94478.28;5086482;28;20194;-76
2023/07/05 06:57:26;;;;;;;13.23;9.55;;;;;;;33.24;43.66;94472.38;5089060;28;20194;-74
2023/07/05 06:59:53;;;;;;;11.93;9.52;;;;;;;34.05;42.07;94467.34;5088865;28;20202;-76
2023/07/05 07:02:19;;;;;;;17.02;10.48;;;;;;;34.24;41.49;94477.16;5088361;28;20665;-75
2023/07/05 07:04:46;;;;;;;12.65;9.75;;;;;;;34.57;41.80;94466.50;5081517;28;20701;-76
2023/07/05 07:07:13;;;;;;;11.75;9.98;;;;;;;35.84;39.77;94468.75;5068696;28;20206;-76
2023/07/05 07:09:40;;;;;;;11.50;9.55;;;;;;;35.28;40.35;94465.25;5086950;28;20557;-75
2023/07/05 07:12:10;;;;;;;15.80;10.30;;;;;;;33.81;42.18;94478.69;5090296;28;20657;-75
2023/07/05 07:14:37;;;;;;;11.02;8.43;;;;;;;33.59;42.33;94473.41;5089787;28;20210;-75
2023/07/05 07:17:04;;;;;;;12.20;8.45;;;;;;;34.09;41.39;94465.13;5085150;28;20538;-74
2023/07/05 07:19:31;;;;;;;11.88;8.43;;;;;;;34.92;40.03;94462.94;5083503;28;20194;-75
2023/07/05 07:21:57;;;;;;;11.55;9.65;;;;;;;35.26;39.86;94469.84;5088921;28;20198;-74
2023/07/05 07:24:24;;;;;;;11.25;9.23;;;;;;;35.02;41.38;94460.75;5087058;28;20611;-75
2023/07/05 07:26:51;;;;;;;12.57;9.07;;;;;;;35.58;39.78;94462.28;5086278;28;20725;-75
2023/07/05 07:29:19;;;;;;;16.60;8.77;;;;;;;36.22;39.34;94464.00;5088159;28;20206;-75
2023/07/05 07:31:46;;;;;;;12.38;8.65;;;;;;;35.37;40.46;94458.72;5090118;28;20202;-75
2023/07/05 07:34:12;;;;;;;11.70;9.95;;;;;;;34.59;41.11;94455.50;5089290;28;20230;-75
2023/07/05 07:36:39;;;;;;;12.05;8.68;;;;;;;34.89;41.12;94449.84;5067620;28;20207;-75
2023/07/05 07:39:06;;;;;;;12.60;9.05;;;;;;;34.28;42.29;94457.31;5067352;28;20226;-75
2023/07/05 07:41:35;;;;;;;12.27;9.10;;;;;;;32.85;44.33;94461.06;5067531;28;20783;-75
2023/07/05 07:44:04;;;;;;;13.38;9.73;;;;;;;32.28;45.78;94463.78;5067626;28;20254;-75
2023/07/05 07:46:32;;;;;;;12.43;9.10;;;;;;;33.27;44.06;94457.41;5085622;28;20548;-74
2023/07/05 07:49:01;;;;;;;13.40;8.77;;;;;;;33.87;43.45;94460.69;5087591;28;20700;-74
2023/07/05 07:51:31;;;;;;;13.15;8.73;;;;;;;33.73;45.29;94455.78;5087036;28;20202;-76
2023/07/05 07:53:58;;;;;;;13.40;9.45;;;;;;;32.87;43.90;94455.78;5086113;28;20242;-73
2023/07/05 07:56:26;;;;;;;11.85;9.07;;;;;;;33.45;43.17;94451.66;5087324;28;20669;-74
2023/07/05 07:58:54;;;;;;;9.18;8.13;;;;;;;34.04;43.00;94444.09;5091312;28;20602;-77
2023/07/05 08:01:24;;;;;;;13.60;8.80;;;;;;;33.93;41.65;94446.69;5072533;28;20199;-74
2023/07/05 08:03:52;;;;;;;10.52;9.30;;;;;;;33.48;43.05;94445.84;5082526;28;20218;-76
2023/07/05 08:06:20;;;;;;;11.85;9.07;;;;;;;33.05;43.03;94452.84;5092796;28;20206;-75
2023/07/05 08:08:47;;;;;;;10.18;9.07;;;;;;;32.96;42.93;94444.47;5088531;28;20237;-76
2023/07/05 08:11:13;;;;;;;9.80;8.77;;;;;;;31.41;45.42;94462.50;5090695;28;20202;-77
2023/07/05 08:13:41;;;;;;;14.60;9.93;;;;;;;30.91;48.31;94461.00;5090100;28;20745;-74
2023/07/05 08:16:08;;;;;;;12.30;9.52;;;;;;;31.18;47.03;94456.72;5078417;28;20213;-76
2023/07/05 08:18:35;;;;;;;10.82;8.63;;;;;;;31.52;45.64;94459.22;5092102;28;20210;-75
2023/07/05 08:21:03;;;;;;;10.15;8.68;;;;;;;32.42;45.50;94451.13;5097435;28;20534;-76
2023/07/05 08:23:30;;;;;;;9.52;8.18;;;;;;;31.85;45.15;94464.19;5091108;28;20740;-75
2023/07/05 08:25:57;;;;;;;9.43;8.30;;;;;;;31.46;47.01;94463.88;5091918;28;20210;-75
2023/07/05 08:28:24;;;;;;;9.45;8.45;;;;;;;32.32;46.18;94463.63;5091662;28;20283;-75
2023/07/05 08:30:55;;;;;;;13.05;9.52;;;;;;;32.42;45.19;94459.53;5091624;28;20255;-75
2023/07/05 08:33:23;;;;;;;11.57;8.73;;;;;;;32.53;45.05;94445.03;5089250;28;20264;-75
2023/07/05 08:35:50;;;;;;;13.88;8.90;;;;;;;31.50;46.82;94455.31;5080236;28;20214;-76
2023/07/05 08:38:18;;;;;;;12.20;8.43;;;;;;;31.76;47.09;94451.75;5091531;28;20214;-75
2023/07/05 08:40:52;;;;;;;11.40;8.52;;;;;;;32.52;45.56;94443.47;5091451;28;20194;-75
2023/07/05 08:43:34;;;;;;;9.38;7.70;;;;;;;32.71;44.35;94450.53;5087333;28;20303;-74
2023/07/05 08:46:04;;;;;;;10.55;8.50;;;;;;;33.38;43.47;94446.41;5085949;28;20251;-74
2023/07/05 08:48:34;;;;;;;10.80;7.93;;;;;;;31.90;45.18;94443.94;5105294;28;20198;-73
2023/07/05 08:51:03;;;;;;;9.98;8.20;;;;;;;32.87;45.02;94441.72;5090891;28;20615;-75
2023/07/05 08:53:35;;;;;;;10.77;9.00;;;;;;;31.59;46.35;94442.09;5077560;28;20235;-75
2023/07/05 08:56:07;;;;;;;12.98;9.30;;;;;;;30.65;49.36;94438.09;5087718;28;20266;-74
2023/07/05 08:58:41;;;;;;;10.00;8.57;;;;;;;31.53;48.32;94438.38;5075379;28;20198;-75
2023/07/05 09:01:17;;;;;;;10.50;8.63;;;;;;;31.57;46.93;94432.63;5086823;28;20206;-74
2023/07/05 09:03:44;;;;;;;10.10;8.52;;;;;;;31.16;47.40;94436.81;5090308;28;20663;-74
2023/07/05 09:06:23;;;;;;;8.93;8.02;;;;;;;31.57;47.23;94432.63;5090661;28;20315;-74
2023/07/05 09:09:17;;;;;;;9.43;7.82;;;;;;;31.04;47.27;94427.28;5104032;28;20377;-74
2023/07/05 09:11:55;;;;;;;10.25;8.55;;;;;;;31.09;47.17;94433.09;5079989;28;20198;-74
2023/07/05 09:14:35;;;;;;;10.15;7.88;;;;;;;31.12;47.98;94425.78;5089691;28;20210;-77
2023/07/05 09:17:09;;;;;;;11.07;7.85;;;;;;;29.78;50.61;94423.56;5090621;28;20204;-75
2023/07/05 09:19:48;;;;;;;13.85;8.75;;;;;;;30.17;51.36;94413.69;5077657;28;20238;-74
2023/07/05 09:22:20;;;;;;;9.77;8.10;;;;;;;30.60;50.84;94416.34;5090524;28;20277;-75
2023/07/05 09:24:49;;;;;;;11.05;8.48;;;;;;;30.61;48.21;94409.53;5090993;28;20206;-74
2023/07/05 09:27:21;;;;;;;10.45;7.80;;;;;;;30.61;48.87;94403.16;5089905;28;20195;-74
2023/07/05 09:29:52;;;;;;;10.43;8.32;;;;;;;30.96;47.54;94403.66;5090460;28;20700;-71
2023/07/05 09:32:22;;;;;;;9.40;7.50;;;;;;;31.14;48.04;94400.13;5090657;28;20203;-77
2023/07/05 09:34:52;;;;;;;10.73;7.70;;;;;;;30.93;48.79;94396.97;5090465;28;20234;-74
2023/07/05 09:37:21;;;;;;;8.82;7.60;;;;;;;31.21;47.87;94397.00;5090343;28;20198;-74
2023/07/05 09:40:04;;;;;;;9.57;7.68;;;;;;;31.43;47.94;94394.81;5090686;28;20210;-76
2023/07/05 09:42:36;;;;;;;8.80;7.55;;;;;;;31.02;47.31;94399.78;5096417;28;20191;-75
2023/07/05 09:45:03;;;;;;;8.85;7.65;;;;;;;30.75;48.07;94394.16;5084955;28;20208;-74
2023/07/05 09:47:30;;;;;;;10.00;7.78;;;;;;;30.73;48.49;94396.63;5084576;28;20206;-74
2023/07/05 09:49:57;;;;;;;8.30;7.20;;;;;;;30.68;49.18;94402.84;5089298;28;20206;-74
2023/07/05 09:52:26;;;;;;;9.00;6.85;;;;;;;31.22;48.05;94406.94;5089069;28;20619;-74
2023/07/05 09:55:00;;;;;;;9.43;7.22;;;;;;;31.17;47.19;94399.94;5089031;28;20233;-73
2023/07/05 09:57:27;;;;;;;9.38;7.43;;;;;;;31.17;49.22;94399.16;5088905;28;20718;-74
2023/07/05 09:59:54;;;;;;;7.97;6.93;;;;;;;31.24;49.36;94398.88;5099050;28;20207;-74
2023/07/05 10:02:24;;;;;;;8.30;7.20;;;;;;;31.19;48.87;94391.09;5089850;28;20253;-75
2023/07/05 10:04:53;;;;;;;12.02;8.00;;;;;;;30.41;48.72;94403.50;5076210;28;20576;-74
2023/07/05 10:07:23;;;;;;;12.98;8.07;;;;;;;30.78;47.88;94401.59;5089545;28;20315;-74
2023/07/05 10:10:01;;;;;;;9.88;7.40;;;;;;;30.84;48.55;94396.19;5089719;28;20210;-75
2023/07/05 10:12:34;;;;;;;8.35;7.38;;;;;;;31.25;48.98;94395.59;5089255;28;20197;-76
2023/07/05 10:15:01;;;;;;;10.07;7.93;;;;;;;31.39;49.42;94394.97;5099408;28;20305;-75
2023/07/05 10:17:41;;;;;;;8.63;7.40;;;;;;;31.39;48.16;94386.56;5090016;28;20201;-75
2023/07/05 10:20:19;;;;;;;10.02;7.32;;;;;;;31.06;49.28;94389.19;5095565;28;20281;-75
2023/07/05 10:22:47;;;;;;;9.15;7.57;;;;;;;30.97;49.00;94385.63;5083005;28;20193;-75
2023/07/05 10:25:20;;;;;;;9.00;7.25;;;;;;;30.81;49.10;94378.31;5096226;28;20256;-75
2023/07/05 10:27:49;;;;;;;10.60;7.95;;;;;;;31.20;49.10;94381.44;5076406;28;20214;-75
2023/07/05 10:30:19;;;;;;;8.00;7.20;;;;;;;32.63;46.57;94376.38;5088661;28;20680;-77
2023/07/05 10:32:49;;;;;;;9.57;7.25;;;;;;;32.58;45.29;94383.41;5089345;28;20259;-75
2023/07/05 10:35:24;;;;;;;8.52;7.00;;;;;;;32.08;47.61;94382.25;5089263;28;20272;-75
2023/07/05 10:37:52;;;;;;;10.05;7.38;;;;;;;32.40;46.49;94375.09;5099995;28;20242;-75
2023/07/05 10:40:22;;;;;;;8.40;7.07;;;;;;;32.44;45.03;94370.88;5081916;28;20259;-75
2023/07/05 10:42:52;;;;;;;11.85;7.45;;;;;;;32.44;45.52;94370.09;5089253;28;20213;-74
2023/07/05 10:45:21;;;;;;;9.25;6.78;;;;;;;32.38;45.21;94367.19;5079928;28;20685;-74
2023/07/05 10:47:52;;;;;;;9.60;8.13;;;;;;;30.62;50.24;94377.50;5081535;28;20247;-74
2023/07/05 10:50:24;;;;;;;9.52;8.25;;;;;;;29.99;52.55;94372.47;5082623;28;20255;-74
2023/07/05 10:52:57;;;;;;;9.85;8.30;;;;;;;29.72;53.85;94377.88;5077650;28;20189;-74
2023/07/05 10:55:38;;;;;;;11.63;8.35;;;;;;;29.81;54.02;94380.72;5089327;28;20303;-74
2023/07/05 10:58:09;;;;;;;11.38;8.35;;;;;;;29.73;53.30;94379.44;5088535;28;20202;-74
2023/07/05 11:00:39;;;;;;;11.15;8.43;;;;;;;29.46;56.21;94386.44;5075867;28;20238;-75
2023/07/05 11:03:11;;;;;;;11.75;8.30;;;;;;;29.52;55.04;94389.44;5087973;28;20222;-74
2023/07/05 11:05:43;;;;;;;10.68;8.93;;;;;;;29.53;54.68;94394.53;5102102;28;20606;-75
2023/07/05 11:08:16;;;;;;;11.38;8.68;;;;;;;29.23;56.26;94395.25;5069065;28;20209;-74
2023/07/05 11:10:46;;;;;;;10.50;8.18;;;;;;;28.76;56.61;94410.00;5068889;28;20625;-73
2023/07/05 11:13:15;;;;;;;14.85;7.82;;;;;;;28.59;57.14;94428.09;5068788;28;20264;-76
2023/07/05 11:15:42;;;;;;;8.20;7.28;;;;;;;28.40;56.67;94415.97;5085292;28;20283;-77
2023/07/05 11:18:14;;;;;;;10.40;7.40;;;;;;;28.10;57.63;94417.31;5080976;28;20206;-75
2023/07/05 11:20:49;;;;;;;10.00;7.60;;;;;;;27.64;58.88;94412.34;5088989;28;20351;-74
2023/07/05 11:23:54;;;;;;;14.20;6.60;;;;;;;27.14;59.03;94413.75;5099927;28;20201;-70
2023/07/05 11:26:34;;;;;;;12.15;6.35;;;;;;;26.52;57.31;94426.84;5079419;28;20733;-71
2023/07/05 11:29:12;;;;;;;10.73;5.60;;;;;;;26.15;58.58;94426.13;5088682;28;20519;-75
2023/07/05 11:31:59;;;;;;;17.42;5.18;;;;;;;26.03;58.17;94415.72;5091451;28;20206;-75
2023/07/05 11:34:42;;;;;;;7.85;5.20;;;;;;;26.01;57.31;94401.47;5093102;28;20222;-75